sensor_id;sensor_type;location;lat;lon;timestamp;P1;durP1;ratioP1;P2;durP2;ratioP2
27003;SDS011;14546;47.590;19.022;2023-04-29T00:00:10;19.33;;;13.82;;
27003;SDS011;14546;47.590;19.022;2023-04-29T00:02:36;24.48;;;14.88;;
27003;SDS011;14546;47.590;19.022;2023-04-29T00:05:02;25.33;;;14.68;;
27003;SDS011;14546;47.590;19.022;2023-04-29T00:07:31;21.05;;;15.38;;
27003;SDS011;14546;47.590;19.022;2023-04-29T00:09:57;24.25;;;14.95;;
27003;SDS011;14546;47.590;19.022;2023-04-29T00:12:23;25.00;;;15.10;;
27003;SDS011;14546;47.590;19.022;2023-04-29T00:14:48;24.52;;;15.27;;
27003;SDS011;14546;47.590;19.022;2023-04-29T00:17:14;27.30;;;15.98;;
27003;SDS011;14546;47.590;19.022;2023-04-29T00:19:41;24.73;;;15.63;;
27003;SDS011;14546;47.590;19.022;2023-04-29T00:22:09;25.90;;;15.30;;
27003;SDS011;14546;47.590;19.022;2023-04-29T00:24:34;20.92;;;15.00;;
27003;SDS011;14546;47.590;19.022;2023-04-29T00:27:00;23.65;;;14.98;;
27003;SDS011;14546;47.590;19.022;2023-04-29T00:36:35;24.17;;;14.55;;
27003;SDS011;14546;47.590;19.022;2023-04-29T00:39:01;24.52;;;14.65;;
27003;SDS011;14546;47.590;19.022;2023-04-29T00:41:27;21.30;;;13.63;;
27003;SDS011;14546;47.590;19.022;2023-04-29T00:43:53;24.63;;;14.70;;
27003;SDS011;14546;47.590;19.022;2023-04-29T00:46:24;27.42;;;13.52;;
27003;SDS011;14546;47.590;19.022;2023-04-29T00:48:50;23.33;;;13.82;;
27003;SDS011;14546;47.590;19.022;2023-04-29T00:51:15;22.10;;;13.15;;
27003;SDS011;14546;47.590;19.022;2023-04-29T00:53:42;21.13;;;13.00;;
27003;SDS011;14546;47.590;19.022;2023-04-29T00:56:08;21.08;;;13.00;;
27003;SDS011;14546;47.590;19.022;2023-04-29T00:58:35;23.02;;;12.68;;
27003;SDS011;14546;47.590;19.022;2023-04-29T01:01:03;21.45;;;13.43;;
27003;SDS011;14546;47.590;19.022;2023-04-29T01:03:29;19.73;;;12.60;;
27003;SDS011;14546;47.590;19.022;2023-04-29T01:06:00;19.00;;;12.75;;
27003;SDS011;14546;47.590;19.022;2023-04-29T01:08:50;23.23;;;13.65;;
27003;SDS011;14546;47.590;19.022;2023-04-29T01:11:33;25.80;;;12.93;;
27003;SDS011;14546;47.590;19.022;2023-04-29T01:14:03;19.27;;;12.77;;
27003;SDS011;14546;47.590;19.022;2023-04-29T01:16:36;22.02;;;12.00;;
27003;SDS011;14546;47.590;19.022;2023-04-29T01:19:32;14.77;;;11.50;;
27003;SDS011;14546;47.590;19.022;2023-04-29T01:22:01;18.48;;;12.00;;
27003;SDS011;14546;47.590;19.022;2023-04-29T01:24:26;20.00;;;13.63;;
27003;SDS011;14546;47.590;19.022;2023-04-29T01:26:58;20.20;;;12.20;;
27003;SDS011;14546;47.590;19.022;2023-04-29T01:46:48;28.88;;;16.08;;
27003;SDS011;14546;47.590;19.022;2023-04-29T01:49:19;22.27;;;16.05;;
27003;SDS011;14546;47.590;19.022;2023-04-29T01:51:46;23.15;;;15.82;;
27003;SDS011;14546;47.590;19.022;2023-04-29T01:54:12;23.48;;;17.17;;
27003;SDS011;14546;47.590;19.022;2023-04-29T01:56:37;24.02;;;17.30;;
27003;SDS011;14546;47.590;19.022;2023-04-29T01:59:04;26.67;;;16.55;;
27003;SDS011;14546;47.590;19.022;2023-04-29T02:01:30;22.35;;;16.90;;
27003;SDS011;14546;47.590;19.022;2023-04-29T02:03:55;22.73;;;16.70;;
27003;SDS011;14546;47.590;19.022;2023-04-29T02:06:22;23.75;;;16.35;;
27003;SDS011;14546;47.590;19.022;2023-04-29T02:08:48;23.33;;;16.25;;
27003;SDS011;14546;47.590;19.022;2023-04-29T02:11:14;27.10;;;16.00;;
27003;SDS011;14546;47.590;19.022;2023-04-29T02:13:40;26.95;;;15.32;;
27003;SDS011;14546;47.590;19.022;2023-04-29T02:16:13;22.15;;;15.05;;
27003;SDS011;14546;47.590;19.022;2023-04-29T02:18:40;24.88;;;15.38;;
27003;SDS011;14546;47.590;19.022;2023-04-29T02:21:06;17.88;;;14.35;;
27003;SDS011;14546;47.590;19.022;2023-04-29T02:23:32;24.30;;;15.38;;
27003;SDS011;14546;47.590;19.022;2023-04-29T02:25:59;23.42;;;15.15;;
27003;SDS011;14546;47.590;19.022;2023-04-29T02:28:30;22.13;;;14.75;;
27003;SDS011;14546;47.590;19.022;2023-04-29T02:30:57;23.30;;;14.38;;
27003;SDS011;14546;47.590;19.022;2023-04-29T02:33:23;26.05;;;14.95;;
27003;SDS011;14546;47.590;19.022;2023-04-29T02:35:48;19.38;;;13.73;;
27003;SDS011;14546;47.590;19.022;2023-04-29T02:38:15;21.67;;;13.60;;
27003;SDS011;14546;47.590;19.022;2023-04-29T02:40:41;21.90;;;13.48;;
27003;SDS011;14546;47.590;19.022;2023-04-29T02:43:07;18.30;;;12.80;;
27003;SDS011;14546;47.590;19.022;2023-04-29T02:45:34;19.52;;;12.68;;
27003;SDS011;14546;47.590;19.022;2023-04-29T02:48:00;22.08;;;13.30;;
27003;SDS011;14546;47.590;19.022;2023-04-29T02:50:27;21.83;;;14.38;;
27003;SDS011;14546;47.590;19.022;2023-04-29T02:52:53;22.88;;;14.55;;
27003;SDS011;14546;47.590;19.022;2023-04-29T02:55:19;20.90;;;14.60;;
27003;SDS011;14546;47.590;19.022;2023-04-29T02:57:46;22.27;;;14.15;;
27003;SDS011;14546;47.590;19.022;2023-04-29T03:00:12;25.92;;;14.45;;
27003;SDS011;14546;47.590;19.022;2023-04-29T03:02:39;28.98;;;14.10;;
27003;SDS011;14546;47.590;19.022;2023-04-29T03:05:08;22.00;;;14.05;;
27003;SDS011;14546;47.590;19.022;2023-04-29T03:07:34;20.77;;;14.38;;
27003;SDS011;14546;47.590;19.022;2023-04-29T03:10:00;18.90;;;12.65;;
27003;SDS011;14546;47.590;19.022;2023-04-29T03:12:26;19.27;;;13.35;;
27003;SDS011;14546;47.590;19.022;2023-04-29T03:14:51;21.15;;;13.70;;
27003;SDS011;14546;47.590;19.022;2023-04-29T03:17:17;20.25;;;13.00;;
27003;SDS011;14546;47.590;19.022;2023-04-29T03:19:43;18.80;;;12.25;;
27003;SDS011;14546;47.590;19.022;2023-04-29T03:22:10;16.67;;;12.20;;
27003;SDS011;14546;47.590;19.022;2023-04-29T03:24:36;16.13;;;11.27;;
27003;SDS011;14546;47.590;19.022;2023-04-29T03:27:02;16.20;;;11.68;;
27003;SDS011;14546;47.590;19.022;2023-04-29T03:29:29;18.13;;;11.60;;
27003;SDS011;14546;47.590;19.022;2023-04-29T03:31:55;18.23;;;11.50;;
27003;SDS011;14546;47.590;19.022;2023-04-29T03:34:22;18.63;;;11.77;;
27003;SDS011;14546;47.590;19.022;2023-04-29T03:36:48;19.00;;;11.65;;
27003;SDS011;14546;47.590;19.022;2023-04-29T03:39:15;24.15;;;12.05;;
27003;SDS011;14546;47.590;19.022;2023-04-29T03:41:41;16.23;;;11.20;;
27003;SDS011;14546;47.590;19.022;2023-04-29T03:44:07;15.80;;;11.68;;
27003;SDS011;14546;47.590;19.022;2023-04-29T03:46:33;18.73;;;11.30;;
27003;SDS011;14546;47.590;19.022;2023-04-29T03:48:58;19.10;;;11.77;;
27003;SDS011;14546;47.590;19.022;2023-04-29T03:51:25;19.05;;;11.05;;
27003;SDS011;14546;47.590;19.022;2023-04-29T03:53:52;22.52;;;11.40;;
27003;SDS011;14546;47.590;19.022;2023-04-29T03:56:22;17.38;;;11.90;;
27003;SDS011;14546;47.590;19.022;2023-04-29T03:58:52;18.48;;;10.65;;
27003;SDS011;14546;47.590;19.022;2023-04-29T04:01:18;23.67;;;12.10;;
27003;SDS011;14546;47.590;19.022;2023-04-29T04:03:46;21.23;;;11.38;;
27003;SDS011;14546;47.590;19.022;2023-04-29T04:06:12;15.98;;;11.23;;
27003;SDS011;14546;47.590;19.022;2023-04-29T04:08:38;18.30;;;11.35;;
27003;SDS011;14546;47.590;19.022;2023-04-29T04:11:05;15.65;;;10.50;;
27003;SDS011;14546;47.590;19.022;2023-04-29T04:13:31;19.17;;;11.65;;
27003;SDS011;14546;47.590;19.022;2023-04-29T04:15:57;20.05;;;10.90;;
27003;SDS011;14546;47.590;19.022;2023-04-29T04:18:23;15.25;;;10.23;;
27003;SDS011;14546;47.590;19.022;2023-04-29T04:20:49;20.02;;;11.95;;
27003;SDS011;14546;47.590;19.022;2023-04-29T04:23:15;17.27;;;11.00;;
27003;SDS011;14546;47.590;19.022;2023-04-29T04:25:47;19.17;;;11.98;;
27003;SDS011;14546;47.590;19.022;2023-04-29T04:28:13;17.27;;;10.85;;
27003;SDS011;14546;47.590;19.022;2023-04-29T04:30:39;18.75;;;10.52;;
27003;SDS011;14546;47.590;19.022;2023-04-29T04:33:06;18.48;;;10.50;;
27003;SDS011;14546;47.590;19.022;2023-04-29T04:35:32;13.40;;;9.85;;
27003;SDS011;14546;47.590;19.022;2023-04-29T04:37:58;14.82;;;9.45;;
27003;SDS011;14546;47.590;19.022;2023-04-29T04:40:24;18.77;;;10.95;;
27003;SDS011;14546;47.590;19.022;2023-04-29T04:42:52;16.42;;;10.63;;
27003;SDS011;14546;47.590;19.022;2023-04-29T04:45:18;16.65;;;11.30;;
27003;SDS011;14546;47.590;19.022;2023-04-29T04:47:43;17.70;;;11.20;;
27003;SDS011;14546;47.590;19.022;2023-04-29T04:50:09;15.98;;;11.63;;
27003;SDS011;14546;47.590;19.022;2023-04-29T04:52:35;19.48;;;12.23;;
27003;SDS011;14546;47.590;19.022;2023-04-29T04:55:00;17.55;;;11.60;;
27003;SDS011;14546;47.590;19.022;2023-04-29T04:57:27;22.08;;;12.23;;
27003;SDS011;14546;47.590;19.022;2023-04-29T04:59:53;16.52;;;11.68;;
27003;SDS011;14546;47.590;19.022;2023-04-29T05:02:18;15.98;;;11.70;;
27003;SDS011;14546;47.590;19.022;2023-04-29T05:04:44;20.42;;;11.52;;
27003;SDS011;14546;47.590;19.022;2023-04-29T05:07:10;16.88;;;11.18;;
27003;SDS011;14546;47.590;19.022;2023-04-29T05:09:35;17.45;;;10.45;;
27003;SDS011;14546;47.590;19.022;2023-04-29T05:12:01;13.48;;;10.02;;
27003;SDS011;14546;47.590;19.022;2023-04-29T05:14:27;15.65;;;10.85;;
27003;SDS011;14546;47.590;19.022;2023-04-29T05:16:57;16.88;;;9.90;;
27003;SDS011;14546;47.590;19.022;2023-04-29T05:19:23;14.60;;;10.68;;
27003;SDS011;14546;47.590;19.022;2023-04-29T05:21:49;16.95;;;11.23;;
27003;SDS011;14546;47.590;19.022;2023-04-29T05:24:15;17.15;;;10.25;;
27003;SDS011;14546;47.590;19.022;2023-04-29T05:26:41;16.25;;;10.05;;
27003;SDS011;14546;47.590;19.022;2023-04-29T05:29:08;14.30;;;10.90;;
27003;SDS011;14546;47.590;19.022;2023-04-29T05:31:35;14.52;;;9.80;;
27003;SDS011;14546;47.590;19.022;2023-04-29T05:34:04;13.65;;;9.52;;
27003;SDS011;14546;47.590;19.022;2023-04-29T05:36:30;18.45;;;9.82;;
27003;SDS011;14546;47.590;19.022;2023-04-29T05:38:55;12.95;;;9.50;;
27003;SDS011;14546;47.590;19.022;2023-04-29T05:41:22;15.98;;;9.98;;
27003;SDS011;14546;47.590;19.022;2023-04-29T05:43:49;21.13;;;10.63;;
27003;SDS011;14546;47.590;19.022;2023-04-29T05:46:15;11.90;;;9.13;;
27003;SDS011;14546;47.590;19.022;2023-04-29T05:48:41;13.73;;;9.02;;
27003;SDS011;14546;47.590;19.022;2023-04-29T05:51:07;19.15;;;10.18;;
27003;SDS011;14546;47.590;19.022;2023-04-29T05:53:33;14.00;;;9.88;;
27003;SDS011;14546;47.590;19.022;2023-04-29T05:56:00;16.83;;;10.10;;
27003;SDS011;14546;47.590;19.022;2023-04-29T05:58:32;18.48;;;9.85;;
27003;SDS011;14546;47.590;19.022;2023-04-29T06:01:01;22.40;;;10.70;;
27003;SDS011;14546;47.590;19.022;2023-04-29T06:03:27;17.58;;;11.20;;
27003;SDS011;14546;47.590;19.022;2023-04-29T06:05:53;12.18;;;9.23;;
27003;SDS011;14546;47.590;19.022;2023-04-29T06:08:20;15.57;;;10.32;;
27003;SDS011;14546;47.590;19.022;2023-04-29T06:10:46;18.23;;;9.73;;
27003;SDS011;14546;47.590;19.022;2023-04-29T06:13:12;15.18;;;10.77;;
27003;SDS011;14546;47.590;19.022;2023-04-29T06:15:37;16.10;;;11.05;;
27003;SDS011;14546;47.590;19.022;2023-04-29T06:18:04;18.20;;;11.27;;
27003;SDS011;14546;47.590;19.022;2023-04-29T06:20:30;12.70;;;10.63;;
27003;SDS011;14546;47.590;19.022;2023-04-29T06:22:56;17.00;;;9.88;;
27003;SDS011;14546;47.590;19.022;2023-04-29T06:25:21;16.00;;;10.10;;
27003;SDS011;14546;47.590;19.022;2023-04-29T06:27:47;19.88;;;9.82;;
27003;SDS011;14546;47.590;19.022;2023-04-29T06:30:13;19.60;;;9.65;;
27003;SDS011;14546;47.590;19.022;2023-04-29T06:32:39;16.35;;;9.73;;
27003;SDS011;14546;47.590;19.022;2023-04-29T06:35:05;13.88;;;10.20;;
27003;SDS011;14546;47.590;19.022;2023-04-29T06:37:31;14.93;;;10.45;;
27003;SDS011;14546;47.590;19.022;2023-04-29T06:39:57;17.90;;;9.48;;
27003;SDS011;14546;47.590;19.022;2023-04-29T06:42:22;21.48;;;10.25;;
27003;SDS011;14546;47.590;19.022;2023-04-29T06:44:48;18.80;;;10.80;;
27003;SDS011;14546;47.590;19.022;2023-04-29T06:47:14;15.57;;;10.52;;
27003;SDS011;14546;47.590;19.022;2023-04-29T06:49:39;18.00;;;10.88;;
27003;SDS011;14546;47.590;19.022;2023-04-29T06:52:07;16.38;;;10.90;;
27003;SDS011;14546;47.590;19.022;2023-04-29T06:54:33;13.32;;;9.35;;
27003;SDS011;14546;47.590;19.022;2023-04-29T06:56:59;14.23;;;9.55;;
27003;SDS011;14546;47.590;19.022;2023-04-29T06:59:24;12.75;;;8.50;;
27003;SDS011;14546;47.590;19.022;2023-04-29T07:01:50;12.65;;;7.63;;
27003;SDS011;14546;47.590;19.022;2023-04-29T07:04:17;14.48;;;8.32;;
27003;SDS011;14546;47.590;19.022;2023-04-29T07:06:43;11.45;;;7.97;;
27003;SDS011;14546;47.590;19.022;2023-04-29T07:09:11;14.40;;;7.97;;
27003;SDS011;14546;47.590;19.022;2023-04-29T07:11:38;14.20;;;8.32;;
27003;SDS011;14546;47.590;19.022;2023-04-29T07:14:05;15.35;;;8.30;;
27003;SDS011;14546;47.590;19.022;2023-04-29T07:16:31;18.58;;;7.95;;
27003;SDS011;14546;47.590;19.022;2023-04-29T07:18:57;13.13;;;7.97;;
27003;SDS011;14546;47.590;19.022;2023-04-29T07:21:23;13.15;;;8.23;;
27003;SDS011;14546;47.590;19.022;2023-04-29T07:23:49;14.27;;;8.00;;
27003;SDS011;14546;47.590;19.022;2023-04-29T07:26:15;14.05;;;8.18;;
27003;SDS011;14546;47.590;19.022;2023-04-29T07:28:42;10.73;;;8.07;;
27003;SDS011;14546;47.590;19.022;2023-04-29T07:31:08;12.55;;;9.32;;
27003;SDS011;14546;47.590;19.022;2023-04-29T07:33:36;12.48;;;9.13;;
27003;SDS011;14546;47.590;19.022;2023-04-29T07:36:02;12.95;;;8.85;;
27003;SDS011;14546;47.590;19.022;2023-04-29T07:38:29;17.63;;;9.63;;
27003;SDS011;14546;47.590;19.022;2023-04-29T07:40:55;17.02;;;8.40;;
27003;SDS011;14546;47.590;19.022;2023-04-29T07:43:21;16.33;;;8.65;;
27003;SDS011;14546;47.590;19.022;2023-04-29T07:45:47;11.93;;;8.35;;
27003;SDS011;14546;47.590;19.022;2023-04-29T07:48:12;16.15;;;8.07;;
27003;SDS011;14546;47.590;19.022;2023-04-29T07:50:41;15.50;;;8.18;;
27003;SDS011;14546;47.590;19.022;2023-04-29T07:53:07;12.57;;;7.88;;
27003;SDS011;14546;47.590;19.022;2023-04-29T07:55:32;12.60;;;7.60;;
27003;SDS011;14546;47.590;19.022;2023-04-29T07:57:58;15.02;;;9.00;;
27003;SDS011;14546;47.590;19.022;2023-04-29T08:00:24;13.82;;;7.93;;
27003;SDS011;14546;47.590;19.022;2023-04-29T08:02:52;13.75;;;8.15;;
27003;SDS011;14546;47.590;19.022;2023-04-29T08:05:19;13.82;;;8.40;;
27003;SDS011;14546;47.590;19.022;2023-04-29T08:07:46;12.43;;;9.40;;
27003;SDS011;14546;47.590;19.022;2023-04-29T08:10:13;12.55;;;8.48;;
27003;SDS011;14546;47.590;19.022;2023-04-29T08:12:39;13.73;;;8.48;;
27003;SDS011;14546;47.590;19.022;2023-04-29T08:15:05;18.15;;;7.97;;
27003;SDS011;14546;47.590;19.022;2023-04-29T08:17:31;13.77;;;8.95;;
27003;SDS011;14546;47.590;19.022;2023-04-29T08:19:57;16.33;;;8.00;;
27003;SDS011;14546;47.590;19.022;2023-04-29T08:22:23;14.68;;;7.47;;
27003;SDS011;14546;47.590;19.022;2023-04-29T08:24:49;13.65;;;7.38;;
27003;SDS011;14546;47.590;19.022;2023-04-29T08:27:14;14.10;;;8.07;;
27003;SDS011;14546;47.590;19.022;2023-04-29T08:29:40;14.38;;;8.32;;
27003;SDS011;14546;47.590;19.022;2023-04-29T08:32:07;9.82;;;6.90;;
27003;SDS011;14546;47.590;19.022;2023-04-29T08:34:32;13.15;;;7.60;;
27003;SDS011;14546;47.590;19.022;2023-04-29T08:37:03;12.38;;;7.70;;
27003;SDS011;14546;47.590;19.022;2023-04-29T08:39:29;10.50;;;7.15;;
27003;SDS011;14546;47.590;19.022;2023-04-29T08:41:55;12.60;;;7.00;;
27003;SDS011;14546;47.590;19.022;2023-04-29T08:44:22;11.43;;;6.97;;
27003;SDS011;14546;47.590;19.022;2023-04-29T08:46:49;17.35;;;6.78;;
27003;SDS011;14546;47.590;19.022;2023-04-29T08:49:15;12.15;;;6.60;;
27003;SDS011;14546;47.590;19.022;2023-04-29T08:51:41;16.70;;;7.18;;
27003;SDS011;14546;47.590;19.022;2023-04-29T08:54:06;13.20;;;7.15;;
27003;SDS011;14546;47.590;19.022;2023-04-29T08:56:32;14.65;;;7.07;;
27003;SDS011;14546;47.590;19.022;2023-04-29T08:58:58;15.95;;;7.88;;
27003;SDS011;14546;47.590;19.022;2023-04-29T09:01:26;10.85;;;6.70;;
27003;SDS011;14546;47.590;19.022;2023-04-29T09:03:55;17.15;;;7.38;;
27003;SDS011;14546;47.590;19.022;2023-04-29T09:06:32;10.57;;;6.90;;
27003;SDS011;14546;47.590;19.022;2023-04-29T09:08:58;10.30;;;7.00;;
27003;SDS011;14546;47.590;19.022;2023-04-29T09:11:26;10.75;;;6.97;;
27003;SDS011;14546;47.590;19.022;2023-04-29T09:13:57;15.63;;;7.55;;
27003;SDS011;14546;47.590;19.022;2023-04-29T09:16:25;17.15;;;7.80;;
27003;SDS011;14546;47.590;19.022;2023-04-29T09:18:52;14.65;;;6.85;;
27003;SDS011;14546;47.590;19.022;2023-04-29T09:21:26;14.13;;;7.30;;
27003;SDS011;14546;47.590;19.022;2023-04-29T09:23:54;10.98;;;6.65;;
27003;SDS011;14546;47.590;19.022;2023-04-29T09:26:24;10.63;;;7.13;;
27003;SDS011;14546;47.590;19.022;2023-04-29T09:29:07;16.08;;;6.60;;
27003;SDS011;14546;47.590;19.022;2023-04-29T09:31:42;10.30;;;6.70;;
27003;SDS011;14546;47.590;19.022;2023-04-29T09:34:08;14.27;;;6.88;;
27003;SDS011;14546;47.590;19.022;2023-04-29T09:39:15;13.75;;;7.30;;
27003;SDS011;14546;47.590;19.022;2023-04-29T09:44:20;11.57;;;7.25;;
27003;SDS011;14546;47.590;19.022;2023-04-29T09:49:30;12.02;;;7.10;;
27003;SDS011;14546;47.590;19.022;2023-04-29T09:52:00;12.75;;;6.55;;
27003;SDS011;14546;47.590;19.022;2023-04-29T09:54:29;13.23;;;6.93;;
27003;SDS011;14546;47.590;19.022;2023-04-29T09:56:56;13.90;;;7.43;;
27003;SDS011;14546;47.590;19.022;2023-04-29T09:59:26;13.20;;;6.68;;
27003;SDS011;14546;47.590;19.022;2023-04-29T10:01:53;12.18;;;6.93;;
27003;SDS011;14546;47.590;19.022;2023-04-29T10:04:21;11.20;;;6.53;;
27003;SDS011;14546;47.590;19.022;2023-04-29T10:06:55;10.65;;;6.43;;
27003;SDS011;14546;47.590;19.022;2023-04-29T10:09:21;12.07;;;6.20;;
27003;SDS011;14546;47.590;19.022;2023-04-29T10:11:49;9.00;;;6.05;;
27003;SDS011;14546;47.590;19.022;2023-04-29T10:14:22;10.50;;;6.43;;
27003;SDS011;14546;47.590;19.022;2023-04-29T10:19:34;10.45;;;5.95;;
27003;SDS011;14546;47.590;19.022;2023-04-29T10:22:06;8.95;;;5.80;;
27003;SDS011;14546;47.590;19.022;2023-04-29T10:24:36;9.02;;;5.80;;
27003;SDS011;14546;47.590;19.022;2023-04-29T10:27:23;9.18;;;5.55;;
27003;SDS011;14546;47.590;19.022;2023-04-29T10:29:51;12.48;;;6.20;;
27003;SDS011;14546;47.590;19.022;2023-04-29T10:32:19;14.98;;;5.35;;
27003;SDS011;14546;47.590;19.022;2023-04-29T10:34:47;10.68;;;6.15;;
27003;SDS011;14546;47.590;19.022;2023-04-29T10:37:16;11.27;;;5.82;;
27003;SDS011;14546;47.590;19.022;2023-04-29T10:39:49;12.55;;;5.13;;
27003;SDS011;14546;47.590;19.022;2023-04-29T10:50:33;10.43;;;5.22;;
27003;SDS011;14546;47.590;19.022;2023-04-29T10:53:10;9.63;;;5.22;;
27003;SDS011;14546;47.590;19.022;2023-04-29T10:55:38;9.43;;;4.75;;
27003;SDS011;14546;47.590;19.022;2023-04-29T10:58:04;10.98;;;4.80;;
27003;SDS011;14546;47.590;19.022;2023-04-29T11:00:31;10.07;;;4.68;;
27003;SDS011;14546;47.590;19.022;2023-04-29T11:03:01;7.75;;;4.20;;
27003;SDS011;14546;47.590;19.022;2023-04-29T11:05:31;8.45;;;4.65;;
27003;SDS011;14546;47.590;19.022;2023-04-29T11:08:14;6.60;;;4.55;;
27003;SDS011;14546;47.590;19.022;2023-04-29T11:10:51;7.15;;;3.45;;
27003;SDS011;14546;47.590;19.022;2023-04-29T11:13:22;7.55;;;3.92;;
27003;SDS011;14546;47.590;19.022;2023-04-29T11:18:30;9.60;;;4.53;;
27003;SDS011;14546;47.590;19.022;2023-04-29T11:23:36;7.88;;;4.50;;
27003;SDS011;14546;47.590;19.022;2023-04-29T11:26:03;14.27;;;4.38;;
27003;SDS011;14546;47.590;19.022;2023-04-29T11:28:30;13.57;;;4.72;;
27003;SDS011;14546;47.590;19.022;2023-04-29T11:30:56;9.52;;;4.63;;
27003;SDS011;14546;47.590;19.022;2023-04-29T11:33:23;15.45;;;4.20;;
27003;SDS011;14546;47.590;19.022;2023-04-29T11:35:51;7.82;;;4.05;;
27003;SDS011;14546;47.590;19.022;2023-04-29T11:38:17;10.05;;;4.43;;
27003;SDS011;14546;47.590;19.022;2023-04-29T11:40:49;9.68;;;3.70;;
27003;SDS011;14546;47.590;19.022;2023-04-29T11:43:18;11.75;;;4.70;;
27003;SDS011;14546;47.590;19.022;2023-04-29T11:45:45;8.48;;;3.97;;
27003;SDS011;14546;47.590;19.022;2023-04-29T11:48:22;6.93;;;4.32;;
27003;SDS011;14546;47.590;19.022;2023-04-29T11:50:49;11.13;;;4.57;;
27003;SDS011;14546;47.590;19.022;2023-04-29T11:53:18;12.13;;;4.00;;
27003;SDS011;14546;47.590;19.022;2023-04-29T11:55:44;10.95;;;4.78;;
27003;SDS011;14546;47.590;19.022;2023-04-29T11:58:11;7.63;;;4.72;;
27003;SDS011;14546;47.590;19.022;2023-04-29T12:00:39;9.95;;;4.32;;
27003;SDS011;14546;47.590;19.022;2023-04-29T12:03:26;7.32;;;4.53;;
27003;SDS011;14546;47.590;19.022;2023-04-29T12:05:52;7.97;;;4.15;;
27003;SDS011;14546;47.590;19.022;2023-04-29T12:08:22;7.93;;;4.55;;
27003;SDS011;14546;47.590;19.022;2023-04-29T12:10:51;12.25;;;4.30;;
27003;SDS011;14546;47.590;19.022;2023-04-29T12:13:17;9.60;;;4.30;;
27003;SDS011;14546;47.590;19.022;2023-04-29T12:15:44;7.88;;;4.22;;
27003;SDS011;14546;47.590;19.022;2023-04-29T12:18:11;12.65;;;4.90;;
27003;SDS011;14546;47.590;19.022;2023-04-29T12:20:38;11.23;;;4.40;;
27003;SDS011;14546;47.590;19.022;2023-04-29T12:23:13;12.63;;;4.45;;
27003;SDS011;14546;47.590;19.022;2023-04-29T12:25:40;10.68;;;4.97;;
27003;SDS011;14546;47.590;19.022;2023-04-29T12:28:12;7.53;;;4.57;;
27003;SDS011;14546;47.590;19.022;2023-04-29T12:30:38;10.02;;;5.00;;
27003;SDS011;14546;47.590;19.022;2023-04-29T12:33:06;10.25;;;5.03;;
27003;SDS011;14546;47.590;19.022;2023-04-29T12:35:33;9.15;;;4.97;;
27003;SDS011;14546;47.590;19.022;2023-04-29T12:38:00;11.48;;;5.90;;
27003;SDS011;14546;47.590;19.022;2023-04-29T12:40:26;8.05;;;5.13;;
27003;SDS011;14546;47.590;19.022;2023-04-29T12:42:52;8.93;;;4.88;;
27003;SDS011;14546;47.590;19.022;2023-04-29T12:45:25;11.65;;;5.25;;
27003;SDS011;14546;47.590;19.022;2023-04-29T12:47:51;7.97;;;4.78;;
27003;SDS011;14546;47.590;19.022;2023-04-29T12:50:17;8.45;;;4.45;;
27003;SDS011;14546;47.590;19.022;2023-04-29T12:52:43;17.50;;;4.93;;
27003;SDS011;14546;47.590;19.022;2023-04-29T12:55:10;8.10;;;5.20;;
27003;SDS011;14546;47.590;19.022;2023-04-29T12:57:36;10.32;;;5.45;;
27003;SDS011;14546;47.590;19.022;2023-04-29T13:00:03;9.52;;;5.05;;
27003;SDS011;14546;47.590;19.022;2023-04-29T13:02:30;7.65;;;5.28;;
27003;SDS011;14546;47.590;19.022;2023-04-29T13:04:56;8.20;;;4.90;;
27003;SDS011;14546;47.590;19.022;2023-04-29T13:07:22;9.75;;;4.82;;
27003;SDS011;14546;47.590;19.022;2023-04-29T13:09:48;12.50;;;5.45;;
27003;SDS011;14546;47.590;19.022;2023-04-29T13:12:15;9.35;;;5.30;;
27003;SDS011;14546;47.590;19.022;2023-04-29T13:14:41;9.95;;;4.72;;
27003;SDS011;14546;47.590;19.022;2023-04-29T13:17:07;9.48;;;4.93;;
27003;SDS011;14546;47.590;19.022;2023-04-29T13:19:36;11.38;;;4.95;;
27003;SDS011;14546;47.590;19.022;2023-04-29T13:22:02;9.65;;;5.20;;
27003;SDS011;14546;47.590;19.022;2023-04-29T13:24:31;8.32;;;5.25;;
27003;SDS011;14546;47.590;19.022;2023-04-29T13:26:59;8.52;;;4.72;;
27003;SDS011;14546;47.590;19.022;2023-04-29T13:29:27;9.52;;;5.20;;
27003;SDS011;14546;47.590;19.022;2023-04-29T13:31:53;8.85;;;4.85;;
27003;SDS011;14546;47.590;19.022;2023-04-29T13:34:19;10.75;;;5.22;;
27003;SDS011;14546;47.590;19.022;2023-04-29T13:36:45;7.93;;;5.25;;
27003;SDS011;14546;47.590;19.022;2023-04-29T13:39:11;9.38;;;5.00;;
27003;SDS011;14546;47.590;19.022;2023-04-29T13:41:37;8.82;;;5.10;;
27003;SDS011;14546;47.590;19.022;2023-04-29T13:44:03;9.48;;;4.47;;
27003;SDS011;14546;47.590;19.022;2023-04-29T13:46:29;7.85;;;4.43;;
27003;SDS011;14546;47.590;19.022;2023-04-29T13:48:56;14.30;;;4.78;;
27003;SDS011;14546;47.590;19.022;2023-04-29T13:51:22;10.48;;;4.45;;
27003;SDS011;14546;47.590;19.022;2023-04-29T13:53:48;7.45;;;4.40;;
27003;SDS011;14546;47.590;19.022;2023-04-29T13:56:14;10.10;;;4.93;;
27003;SDS011;14546;47.590;19.022;2023-04-29T13:58:41;10.07;;;4.93;;
27003;SDS011;14546;47.590;19.022;2023-04-29T14:01:07;9.90;;;4.70;;
27003;SDS011;14546;47.590;19.022;2023-04-29T14:03:33;7.30;;;5.05;;
27003;SDS011;14546;47.590;19.022;2023-04-29T14:05:59;10.75;;;5.00;;
27003;SDS011;14546;47.590;19.022;2023-04-29T14:08:25;9.48;;;4.38;;
27003;SDS011;14546;47.590;19.022;2023-04-29T14:10:51;8.13;;;4.95;;
27003;SDS011;14546;47.590;19.022;2023-04-29T14:13:17;7.40;;;4.60;;
27003;SDS011;14546;47.590;19.022;2023-04-29T14:15:43;8.65;;;4.43;;
27003;SDS011;14546;47.590;19.022;2023-04-29T14:18:09;9.02;;;5.00;;
27003;SDS011;14546;47.590;19.022;2023-04-29T14:20:36;6.60;;;4.95;;
27003;SDS011;14546;47.590;19.022;2023-04-29T14:23:02;9.55;;;4.45;;
27003;SDS011;14546;47.590;19.022;2023-04-29T14:25:28;7.28;;;4.57;;
27003;SDS011;14546;47.590;19.022;2023-04-29T14:27:54;9.00;;;4.55;;
27003;SDS011;14546;47.590;19.022;2023-04-29T14:30:20;8.00;;;4.70;;
27003;SDS011;14546;47.590;19.022;2023-04-29T14:32:46;10.38;;;5.18;;
27003;SDS011;14546;47.590;19.022;2023-04-29T14:35:11;7.00;;;4.40;;
27003;SDS011;14546;47.590;19.022;2023-04-29T14:37:37;13.35;;;5.07;;
27003;SDS011;14546;47.590;19.022;2023-04-29T14:40:04;7.13;;;4.47;;
27003;SDS011;14546;47.590;19.022;2023-04-29T14:42:30;8.90;;;4.82;;
27003;SDS011;14546;47.590;19.022;2023-04-29T14:44:56;5.70;;;4.10;;
27003;SDS011;14546;47.590;19.022;2023-04-29T14:47:22;6.85;;;4.50;;
27003;SDS011;14546;47.590;19.022;2023-04-29T14:49:48;6.68;;;4.30;;
27003;SDS011;14546;47.590;19.022;2023-04-29T14:52:14;8.30;;;4.00;;
27003;SDS011;14546;47.590;19.022;2023-04-29T14:54:40;5.47;;;4.30;;
27003;SDS011;14546;47.590;19.022;2023-04-29T14:57:05;10.55;;;4.25;;
27003;SDS011;14546;47.590;19.022;2023-04-29T14:59:31;10.00;;;4.65;;
27003;SDS011;14546;47.590;19.022;2023-04-29T15:01:57;9.00;;;4.93;;
27003;SDS011;14546;47.590;19.022;2023-04-29T15:04:23;5.80;;;3.95;;
27003;SDS011;14546;47.590;19.022;2023-04-29T15:06:48;8.93;;;4.75;;